Time;durP1;ratioP1;P1;durP2;ratioP2;P2;SDS_P1;SDS_P2;PMS_P1;PMS_P2;Temp;Humidity;BMP_temperature;BMP_pressure;BME280_temperature;BME280_humidity;BME280_pressure;Samples;Min_cycle;Max_cycle;Signal;HPM_P1;HPM_P2
2023/04/15 00:01:21;;;;;;;0.10;0.10;;;;;;;;;;6333242;22;19991;-94
2023/04/15 00:03:47;;;;;;;0.10;0.10;;;;;;;;;;6333716;22;20003;-93
2023/04/15 00:06:13;;;;;;;0.10;0.10;;;;;;;;;;6334415;22;19999;-94
2023/04/15 00:08:39;;;;;;;0.10;0.10;;;;;;;;;;6332825;22;19994;-94
2023/04/15 00:11:05;;;;;;;0.10;0.10;;;;;;;;;;6333698;22;19998;-94
2023/04/15 00:13:32;;;;;;;0.10;0.10;;;;;;;;;;6332864;22;20055;-94
2023/04/15 00:15:59;;;;;;;0.10;0.10;;;;;;;;;;6332357;22;20042;-94
2023/04/15 00:18:24;;;;;;;0.10;0.10;;;;;;;;;;6333756;22;19991;-94
2023/04/15 00:20:51;;;;;;;0.10;0.10;;;;;;;;;;6332444;22;20003;-94
2023/04/15 00:23:17;;;;;;;0.10;0.10;;;;;;;;;;6334006;22;19988;-94
2023/04/15 00:25:43;;;;;;;0.10;0.10;;;;;;;;;;6333380;22;19987;-94
2023/04/15 00:28:09;;;;;;;0.10;0.10;;;;;;;;;;6330357;22;19988;-94
2023/04/15 00:30:35;;;;;;;0.10;0.10;;;;;;;;;;6330319;22;20029;-92
2023/04/15 00:33:02;;;;;;;0.10;0.10;;;;;;;;;;6333792;22;20027;-95
2023/04/15 00:35:28;;;;;;;0.10;0.10;;;;;;;;;;6333998;22;20002;-93
2023/04/15 00:37:54;;;;;;;0.10;0.10;;;;;;;;;;6333732;22;19999;-94
2023/04/15 00:40:21;;;;;;;0.10;0.10;;;7.00;99.90;;;;;;6331726;22;19999;-94
2023/04/15 00:42:47;;;;;;;0.10;0.10;;;;;;;;;;6333965;22;19991;-94
2023/04/15 00:45:13;;;;;;;0.10;0.10;;;;;;;;;;6332976;22;20039;-94
2023/04/15 00:47:41;;;;;;;0.10;0.10;;;7.00;99.90;;;;;;6333775;22;20059;-93
2023/04/15 00:50:07;;;;;;;0.10;0.10;;;;;;;;;;6332276;22;20021;-94
2023/04/15 00:52:33;;;;;;;0.10;0.10;;;;;;;;;;6332877;22;20003;-93
2023/04/15 00:54:59;;;;;;;0.10;0.10;;;;;;;;;;6333350;22;20006;-94
2023/04/15 00:57:26;;;;;;;0.10;0.10;;;;;;;;;;6333453;22;19988;-94
2023/04/15 00:59:52;;;;;;;0.10;0.10;;;;;;;;;;6332645;22;20050;-94
2023/04/15 01:02:18;;;;;;;0.10;0.10;;;;;;;;;;6333708;22;19995;-94
2023/04/15 01:04:44;;;;;;;0.10;0.10;;;;;;;;;;6333281;22;19999;-93
2023/04/15 01:07:10;;;;;;;0.03;0.03;;;;;;;;;;6334202;22;20015;-94
2023/04/15 01:09:36;;;;;;;0.10;0.10;;;;;;;;;;6332519;22;20003;-94
2023/04/15 01:12:02;;;;;;;0.10;0.10;;;;;;;;;;6332631;22;20015;-94
2023/04/15 01:14:29;;;;;;;0.10;0.10;;;;;;;;;;6332545;22;20048;-94
2023/04/15 01:16:55;;;;;;;0.10;0.10;;;;;;;;;;6332544;22;19991;-94
2023/04/15 01:19:21;;;;;;;0.00;0.00;;;;;;;;;;6332360;22;19991;-93
2023/04/15 01:21:47;;;;;;;0.10;0.10;;;;;;;;;;6332238;22;19999;-94
2023/04/15 01:24:16;;;;;;;0.10;0.10;;;7.40;99.90;;;;;;6330381;22;20026;-93
2023/04/15 01:26:42;;;;;;;0.10;0.10;;;;;;;;;;6330533;22;19995;-94
2023/04/15 01:29:09;;;;;;;0.10;0.10;;;;;;;;;;6332812;22;20019;-94
2023/04/15 01:31:35;;;;;;;0.10;0.10;;;;;;;;;;6332135;22;19987;-93
2023/04/15 01:34:01;;;;;;;0.10;0.10;;;;;;;;;;6332277;22;20173;-94
2023/04/15 01:36:27;;;;;;;0.10;0.10;;;;;;;;;;6332240;22;20029;-92
2023/04/15 01:38:53;;;;;;;0.10;0.10;;;;;;;;;;6333154;22;19991;-93
2023/04/15 01:41:27;;;;;;;0.10;0.10;;;7.30;99.90;;;;;;6332279;22;19991;-94
2023/04/15 01:43:53;;;;;;;0.10;0.10;;;;;;;;;;6332822;22;20011;-94
2023/04/15 01:46:19;;;;;;;0.10;0.10;;;;;;;;;;6331961;22;20003;-95
2023/04/15 01:48:46;;;;;;;0.00;0.00;;;;;;;;;;6332648;22;20021;-94
2023/04/15 01:51:12;;;;;;;0.10;0.10;;;;;;;;;;6332494;22;19994;-94
2023/04/15 01:53:38;;;;;;;0.10;0.10;;;;;;;;;;6332968;22;19987;-94
2023/04/15 01:56:03;;;;;;;0.08;0.08;;;7.00;99.90;;;;;;6332447;22;20066;-94
2023/04/15 01:58:30;;;;;;;0.10;0.10;;;;;;;;;;6332893;22;20026;-92
2023/04/15 02:00:56;;;;;;;0.10;0.10;;;;;;;;;;6332210;22;20012;-94
2023/04/15 02:03:22;;;;;;;0.10;0.10;;;;;;;;;;6332403;22;19983;-94
2023/04/15 02:05:49;;;;;;;0.10;0.10;;;;;;;;;;6333373;22;20000;-94
2023/04/15 02:08:16;;;;;;;0.05;0.05;;;;;;;;;;6332403;22;19994;-94
2023/04/15 02:10:42;;;;;;;0.10;0.10;;;;;;;;;;6332444;22;20013;-94
2023/04/15 02:13:08;;;;;;;0.10;0.10;;;;;;;;;;6332975;22;19987;-94
2023/04/15 02:15:34;;;;;;;0.10;0.10;;;;;;;;;;6331764;22;20003;-94
2023/04/15 02:18:00;;;;;;;0.10;0.10;;;;;;;;;;6333033;22;20005;-92
2023/04/15 02:20:26;;;;;;;0.10;0.10;;;;;;;;;;6331903;22;19988;-94
2023/04/15 02:22:52;;;;;;;0.10;0.10;;;;;;;;;;6332155;22;19991;-94
2023/04/15 02:25:19;;;;;;;0.10;0.10;;;;;;;;;;6332885;22;20007;-94
2023/04/15 02:27:45;;;;;;;0.10;0.10;;;;;;;;;;6332326;22;20011;-93
2023/04/15 02:30:11;;;;;;;0.10;0.10;;;;;;;;;;6332327;22;20006;-94
2023/04/15 02:32:37;;;;;;;0.10;0.10;;;;;;;;;;6331670;22;19997;-94
2023/04/15 02:35:04;;;;;;;0.10;0.10;;;7.20;99.90;;;;;;6333355;22;19998;-94
2023/04/15 02:37:30;;;;;;;0.00;0.00;;;;;;;;;;6332242;22;20014;-94
2023/04/15 02:39:56;;;;;;;0.10;0.10;;;;;;;;;;6332254;22;20025;-94
2023/04/15 02:42:22;;;;;;;0.10;0.10;;;;;;;;;;6333042;22;19983;-94
2023/04/15 02:44:48;;;;;;;0.10;0.10;;;;;;;;;;6332708;22;20051;-94
2023/04/15 02:47:14;;;;;;;0.10;0.10;;;;;;;;;;6332508;22;20251;-94
2023/04/15 02:49:40;;;;;;;0.10;0.10;;;;;;;;;;6332418;22;20026;-94
2023/04/15 02:52:06;;;;;;;0.10;0.10;;;;;;;;;;6331966;22;19991;-93
2023/04/15 02:54:32;;;;;;;0.10;0.10;;;;;;;;;;6332576;22;19992;-93
2023/04/15 02:56:59;;;;;;;0.10;0.10;;;;;;;;;;6332518;22;19992;-94
2023/04/15 02:59:26;;;;;;;0.10;0.10;;;;;;;;;;6332801;22;19987;-93
2023/04/15 03:01:52;;;;;;;0.10;0.10;;;;;;;;;;6332583;22;19991;-93
2023/04/15 03:04:18;;;;;;;0.10;0.10;;;;;;;;;;6331576;22;19998;-94
2023/04/15 03:06:44;;;;;;;0.10;0.10;;;;;;;;;;6331919;22;19999;-94
2023/04/15 03:09:10;;;;;;;0.10;0.10;;;;;;;;;;6332205;22;20010;-94
2023/04/15 03:11:39;;;;;;;0.10;0.10;;;;;;;;;;6332082;22;20003;-93
2023/04/15 03:14:05;;;;;;;0.10;0.10;;;;;;;;;;6331992;22;20007;-94
2023/04/15 03:16:31;;;;;;;0.10;0.10;;;;;;;;;;6330745;22;19995;-93
2023/04/15 03:18:57;;;;;;;0.10;0.10;;;;;;;;;;6332959;22;19988;-93
2023/04/15 03:21:23;;;;;;;0.10;0.10;;;;;;;;;;6332036;22;20007;-93
2023/04/15 03:23:49;;;;;;;0.10;0.10;;;;;;;;;;6331499;22;19984;-94
2023/04/15 03:26:28;;;;;;;0.10;0.10;;;7.00;99.90;;;;;;6332594;22;20010;-92
2023/04/15 03:28:54;;;;;;;0.10;0.10;;;;;;;;;;6331179;22;20003;-94
2023/04/15 03:31:20;;;;;;;0.10;0.10;;;;;;;;;;6332518;22;20043;-94
2023/04/15 03:33:46;;;;;;;0.10;0.10;;;;;;;;;;6331849;22;20016;-93
2023/04/15 03:36:12;;;;;;;0.10;0.10;;;;;;;;;;6331820;22;19994;-94
2023/04/15 03:38:38;;;;;;;0.10;0.10;;;;;;;;;;6331009;22;19994;-94
2023/04/15 03:41:04;;;;;;;0.10;0.10;;;;;;;;;;6331159;22;20000;-94
2023/04/15 03:43:30;;;;;;;0.10;0.10;;;;;;;;;;6331565;22;19995;-91
2023/04/15 03:45:56;;;;;;;0.10;0.10;;;;;;;;;;6332437;22;20003;-94
2023/04/15 03:48:22;;;;;;;0.10;0.10;;;;;;;;;;6332975;22;20006;-94
2023/04/15 03:50:48;;;;;;;0.10;0.10;;;;;;;;;;6333282;22;19999;-94
2023/04/15 03:53:15;;;;;;;0.10;0.10;;;;;;;;;;6333630;22;19991;-94
2023/04/15 03:55:40;;;;;;;0.10;0.10;;;;;;;;;;6333016;22;20022;-94
2023/04/15 03:58:06;;;;;;;0.10;0.10;;;;;;;;;;6334184;22;19987;-94
2023/04/15 04:00:32;;;;;;;0.10;0.10;;;;;;;;;;6333736;22;19991;-93
2023/04/15 04:02:58;;;;;;;0.10;0.10;;;7.40;99.90;;;;;;6333338;22;20017;-94
2023/04/15 04:05:24;;;;;;;0.10;0.10;;;;;;;;;;6334219;22;20018;-94
2023/04/15 04:07:50;;;;;;;0.10;0.10;;;;;;;;;;6334233;22;20055;-92
2023/04/15 04:10:16;;;;;;;0.10;0.10;;;;;;;;;;6333643;22;20007;-94
2023/04/15 04:12:42;;;;;;;0.10;0.10;;;;;;;;;;6334307;22;20166;-94
2023/04/15 04:15:08;;;;;;;0.10;0.10;;;;;;;;;;6333114;22;20022;-94
2023/04/15 04:17:34;;;;;;;0.10;0.10;;;;;;;;;;6332894;22;20005;-93
2023/04/15 04:20:00;;;;;;;0.10;0.10;;;;;;;;;;6333759;22;20070;-94
2023/04/15 04:22:26;;;;;;;0.10;0.10;;;;;;;;;;6332992;22;19987;-94
2023/04/15 04:24:52;;;;;;;0.00;0.00;;;;;;;;;;6333973;22;19991;-94
2023/04/15 04:27:18;;;;;;;0.10;0.10;;;;;;;;;;6333830;22;19992;-94
2023/04/15 04:29:46;;;;;;;0.10;0.10;;;;;;;;;;6334132;22;20007;-94
2023/04/15 04:32:12;;;;;;;0.10;0.10;;;;;;;;;;6333051;22;20021;-93
2023/04/15 04:34:38;;;;;;;0.10;0.10;;;;;;;;;;6333285;22;19995;-93
2023/04/15 04:37:04;;;;;;;0.10;0.10;;;;;;;;;;6332747;22;20007;-94
2023/04/15 04:39:31;;;;;;;0.10;0.10;;;;;;;;;;6331810;22;19992;-95
2023/04/15 04:41:57;;;;;;;0.10;0.10;;;;;;;;;;6332735;22;19987;-95
2023/04/15 04:44:23;;;;;;;0.00;0.00;;;;;;;;;;6333995;22;19990;-95
2023/04/15 04:46:49;;;;;;;0.10;0.10;;;;;;;;;;6332577;22;19996;-93
2023/04/15 04:49:15;;;;;;;0.10;0.10;;;;;;;;;;6334315;22;20003;-93
2023/04/15 04:51:41;;;;;;;0.10;0.10;;;;;;;;;;6334049;22;20003;-94
2023/04/15 04:54:07;;;;;;;0.10;0.10;;;;;;;;;;6333446;22;20021;-94
2023/04/15 04:56:33;;;;;;;0.10;0.10;;;;;;;;;;6332891;22;19999;-92
2023/04/15 05:01:27;;;;;;;0.10;0.10;;;7.60;99.90;;;;;;6332713;22;20027;-94
2023/04/15 05:03:53;;;;;;;0.10;0.10;;;;;;;;;;6320281;22;20014;-94
2023/04/15 05:06:19;;;;;;;0.10;0.10;;;;;;;;;;6321421;22;19999;-93
2023/04/15 05:08:45;;;;;;;0.10;0.10;;;;;;;;;;6320621;22;19992;-93
2023/04/15 05:11:11;;;;;;;0.10;0.10;;;7.70;99.90;;;;;;6291524;22;20003;-93
2023/04/15 05:13:37;;;;;;;0.10;0.10;;;;;;;;;;6287963;22;19996;-94
2023/04/15 05:16:06;;;;;;;0.10;0.10;;;7.70;99.90;;;;;;6285928;22;20012;-94
2023/04/15 05:18:32;;;;;;;0.10;0.10;;;8.50;99.90;;;;;;6284014;22;19999;-92
2023/04/15 05:20:58;;;;;;;0.10;0.10;;;;;;;;;;6286398;22;20006;-94
2023/04/15 05:23:24;;;;;;;0.10;0.10;;;;;;;;;;6284998;22;20038;-93
2023/04/15 05:25:50;;;;;;;0.10;0.10;;;;;;;;;;6285929;22;20412;-94
2023/04/15 05:28:16;;;;;;;0.10;0.10;;;;;;;;;;6285176;22;20009;-93
2023/04/15 05:30:42;;;;;;;0.10;0.10;;;;;;;;;;6285842;22;20031;-93
2023/04/15 05:33:08;;;;;;;0.10;0.10;;;;;;;;;;6283959;22;20000;-93
2023/04/15 05:35:34;;;;;;;0.10;0.10;;;;;;;;;;6291843;22;20010;-92
2023/04/15 05:38:00;;;;;;;0.10;0.10;;;;;;;;;;6288517;22;20000;-91
2023/04/15 05:40:26;;;;;;;0.10;0.10;;;7.70;99.90;;;;;;6289538;22;20010;-93
2023/04/15 05:42:51;;;;;;;0.10;0.10;;;7.70;99.90;;;;;;6290330;22;20008;-93
2023/04/15 05:45:17;;;;;;;0.10;0.10;;;;;;;;;;6290946;22;20078;-93
2023/04/15 05:47:43;;;;;;;0.10;0.10;;;;;;;;;;6290971;22;20007;-94
2023/04/15 05:50:59;;;;;;;0.10;0.10;;;7.70;99.90;;;;;;6291158;22;20004;-93
2023/04/15 05:53:25;;;;;;;0.10;0.10;;;;;;;;;;6290312;22;20016;-93
2023/04/15 05:55:51;;;;;;;0.10;0.10;;;;;;;;;;6290836;22;20004;-93
2023/04/15 05:58:16;;;;;;;0.10;0.10;;;;;;;;;;6291874;22;20027;-96
2023/04/15 06:00:43;;;;;;;0.10;0.10;;;;;;;;;;6295099;22;19991;-94
2023/04/15 06:03:10;;;;;;;0.10;0.10;;;;;;;;;;6294228;22;20012;-95
2023/04/15 06:05:36;;;;;;;0.10;0.10;;;;;;;;;;6297820;22;20014;-95
2023/04/15 06:08:02;;;;;;;0.10;0.10;;;;;;;;;;6298107;22;20004;-95
2023/04/15 06:10:28;;;;;;;0.10;0.10;;;;;;;;;;6297009;22;20027;-95
2023/04/15 06:12:54;;;;;;;0.10;0.10;;;;;;;;;;6297301;22;20352;-96
2023/04/15 06:15:20;;;;;;;0.10;0.10;;;;;;;;;;6298471;22;20000;-96
2023/04/15 06:17:46;;;;;;;0.10;0.10;;;;;;;;;;6294021;22;20008;-95
2023/04/15 06:20:13;;;;;;;0.10;0.10;;;;;;;;;;6296145;22;19983;-95
2023/04/15 06:22:39;;;;;;;0.00;0.00;;;;;;;;;;6297098;22;20407;-95
2023/04/15 06:25:06;;;;;;;0.10;0.10;;;;;;;;;;6297791;22;20025;-96
2023/04/15 06:27:32;;;;;;;0.10;0.10;;;;;;;;;;6295987;22;20003;-93
2023/04/15 06:29:58;;;;;;;0.10;0.10;;;7.60;99.90;;;;;;6294873;22;20064;-94
2023/04/15 06:32:23;;;;;;;0.10;0.10;;;7.40;99.90;;;;;;6296312;22;20000;-95
2023/04/15 06:34:49;;;;;;;0.10;0.10;;;;;;;;;;6293117;22;19979;-95
2023/04/15 06:37:15;;;;;;;0.10;0.10;;;;;;;;;;6297055;22;20006;-95
2023/04/15 06:39:42;;;;;;;0.10;0.10;;;7.40;99.90;;;;;;6298123;22;19995;-96
2023/04/15 06:42:08;;;;;;;0.10;0.10;;;;;;;;;;6295537;22;20010;-95
2023/04/15 06:44:35;;;;;;;0.10;0.10;;;;;;;;;;6296979;22;19992;-94
2023/04/15 06:47:01;;;;;;;0.10;0.10;;;;;;;;;;6297239;22;20058;-96
2023/04/15 06:49:27;;;;;;;0.10;0.10;;;;;;;;;;6297024;22;20003;-95
2023/04/15 06:51:52;;;;;;;0.10;0.10;;;;;;;;;;6290639;22;20097;-95
2023/04/15 06:54:19;;;;;;;0.10;0.10;;;;;;;;;;6295521;22;20004;-95
2023/04/15 06:56:45;;;;;;;0.10;0.10;;;;;;;;;;6295469;22;20004;-96
2023/04/15 06:59:11;;;;;;;0.10;0.10;;;;;;;;;;6298250;22;20374;-94
2023/04/15 07:01:37;;;;;;;0.10;0.10;;;;;;;;;;6298345;22;20019;-94
2023/04/15 07:04:04;;;;;;;0.10;0.10;;;;;;;;;;6298048;22;20012;-95
2023/04/15 07:06:31;;;;;;;0.10;0.10;;;;;;;;;;6298672;22;20008;-93
2023/04/15 07:08:57;;;;;;;0.10;0.10;;;;;;;;;;6300390;22;20004;-96
2023/04/15 07:11:23;;;;;;;0.10;0.10;;;;;;;;;;6297306;22;20035;-95
2023/04/15 07:13:49;;;;;;;0.10;0.10;;;;;;;;;;6297400;22;20026;-96
2023/04/15 07:16:15;;;;;;;0.10;0.10;;;;;;;;;;6295062;22;20056;-95
2023/04/15 07:18:41;;;;;;;0.10;0.10;;;7.30;99.90;;;;;;6293935;22;20053;-94
2023/04/15 07:21:07;;;;;;;0.10;0.10;;;;;;;;;;6293075;22;20250;-94
2023/04/15 07:23:33;;;;;;;0.08;0.08;;;;;;;;;;6296938;22;20014;-95
2023/04/15 07:25:58;;;;;;;0.10;0.10;;;7.50;99.90;;;;;;6300748;22;19984;-94
2023/04/15 07:28:24;;;;;;;0.10;0.10;;;;;;;;;;6297835;22;20434;-95
2023/04/15 07:30:50;;;;;;;0.10;0.10;;;7.20;99.90;;;;;;6295873;22;20018;-94
2023/04/15 07:33:16;;;;;;;0.10;0.10;;;;;;;;;;6292421;22;20000;-94
2023/04/15 07:35:42;;;;;;;0.10;0.10;;;;;;;;;;6296207;22;19987;-95
2023/04/15 07:38:08;;;;;;;0.10;0.10;;;;;;;;;;6297180;22;20000;-94
2023/04/15 07:40:34;;;;;;;0.10;0.10;;;;;;;;;;6299761;22;19992;-95
2023/04/15 07:43:00;;;;;;;0.10;0.10;;;;;;;;;;6298675;22;20018;-95
2023/04/15 07:45:26;;;;;;;0.10;0.10;;;;;;;;;;6295131;22;20208;-94
2023/04/15 07:47:52;;;;;;;0.10;0.10;;;;;;;;;;6290275;22;20462;-95
2023/04/15 07:50:18;;;;;;;0.10;0.10;;;;;;;;;;6293039;22;20327;-96
2023/04/15 07:52:45;;;;;;;0.10;0.10;;;;;;;;;;6293196;22;20010;-94
2023/04/15 07:55:11;;;;;;;0.10;0.10;;;;;;;;;;6293985;22;20015;-95
2023/04/15 07:57:37;;;;;;;0.10;0.10;;;;;;;;;;6289210;22;20015;-95
2023/04/15 08:00:04;;;;;;;0.10;0.10;;;7.30;99.90;;;;;;6292640;22;20012;-95
2023/04/15 08:02:31;;;;;;;0.10;0.10;;;;;;;;;;6290812;22;20008;-95
2023/04/15 08:04:57;;;;;;;0.10;0.10;;;;;;;;;;6286881;22;20015;-96
2023/04/15 08:07:24;;;;;;;0.10;0.10;;;;;;;;;;6293904;22;20090;-94
2023/04/15 08:09:50;;;;;;;0.10;0.10;;;;;;;;;;6296976;22;20014;-95
2023/04/15 08:12:16;;;;;;;0.10;0.10;;;;;;;;;;6298679;22;19983;-95
2023/04/15 08:14:42;;;;;;;0.10;0.10;;;;;;;;;;6298055;22;20046;-95
2023/04/15 08:17:08;;;;;;;0.10;0.10;;;;;;;;;;6298312;22;20018;-94
2023/04/15 08:19:34;;;;;;;0.10;0.10;;;;;;;;;;6298126;22;19999;-94
2023/04/15 08:22:00;;;;;;;0.10;0.10;;;;;;;;;;6298341;22;20003;-95
2023/04/15 08:24:26;;;;;;;0.10;0.10;;;;;;;;;;6296028;22;20007;-96
2023/04/15 08:26:52;;;;;;;0.10;0.10;;;;;;;;;;6291715;22;20095;-94
2023/04/15 08:29:18;;;;;;;0.10;0.10;;;7.30;99.90;;;;;;6295641;22;19991;-94
2023/04/15 08:31:44;;;;;;;0.10;0.10;;;;;;;;;;6296291;22;20087;-95
2023/04/15 08:34:13;;;;;;;0.10;0.10;;;7.20;99.90;;;;;;6296418;22;19996;-95
2023/04/15 08:36:39;;;;;;;0.10;0.10;;;;;;;;;;6297053;22;20000;-94
2023/04/15 08:39:05;;;;;;;0.10;0.10;;;;;;;;;;6300790;22;19998;-94
2023/04/15 08:41:44;;;;;;;0.10;0.10;;;7.50;99.90;;;;;;6300386;22;20004;-95
2023/04/15 08:44:10;;;;;;;0.10;0.10;;;;;;;;;;6300435;22;20003;-95
2023/04/15 08:46:36;;;;;;;0.10;0.10;;;;;;;;;;6299906;22;20000;-93
2023/04/15 08:49:14;;;;;;;0.10;0.10;;;7.50;99.90;;;;;;6299193;22;20015;-94
2023/04/15 08:51:40;;;;;;;0.10;0.10;;;;;;;;;;6299040;22;20003;-95
2023/04/15 08:54:09;;;;;;;0.10;0.10;;;7.60;99.90;;;;;;6299435;22;20010;-95
2023/04/15 08:56:38;;;;;;;0.10;0.10;;;7.60;99.90;;;;;;6298070;22;20000;-95
2023/04/15 08:59:04;;;;;;;0.10;0.10;;;;;;;;;;6296117;22;20034;-95
2023/04/15 09:01:31;;;;;;;0.10;0.10;;;7.70;99.90;;;;;;6294402;22;20008;-95
2023/04/15 09:03:57;;;;;;;0.10;0.10;;;;;;;;;;6293763;22;20008;-95
2023/04/15 09:06:24;;;;;;;0.10;0.10;;;7.80;99.90;;;;;;6295820;22;20012;-96
2023/04/15 09:08:51;;;;;;;0.10;0.10;;;8.00;99.90;;;;;;6298978;22;20003;-95
2023/04/15 09:11:18;;;;;;;0.10;0.10;;;;;;;;;;6298793;22;20059;-95
2023/04/15 09:13:44;;;;;;;0.10;0.10;;;8.00;99.90;;;;;;6299928;22;19999;-95
2023/04/15 09:16:10;;;;;;;0.10;0.10;;;;;;;;;;6299179;22;20007;-94
2023/04/15 09:18:36;;;;;;;0.10;0.10;;;;;;;;;;6298137;22;19984;-95
2023/04/15 09:21:10;;;;;;;0.10;0.10;;;8.10;99.90;;;;;;6297484;22;20007;-95
2023/04/15 09:23:38;;;;;;;0.10;0.10;;;8.00;99.90;;;;;;6296365;22;20038;-94
2023/04/15 09:26:04;;;;;;;0.10;0.10;;;;;;;;;;6298162;22;20047;-95
2023/04/15 09:28:30;;;;;;;0.10;0.10;;;;;;;;;;6297204;22;20015;-96
2023/04/15 09:30:59;;;;;;;0.10;0.10;;;8.20;99.90;;;;;;6298343;22;20164;-95
2023/04/15 09:33:27;;;;;;;0.10;0.10;;;8.20;99.90;;;;;;6292661;22;19995;-95
2023/04/15 09:36:02;;;;;;;0.10;0.10;;;8.20;99.90;;;;;;6297170;22;19984;-94
2023/04/15 09:38:28;;;;;;;0.10;0.10;;;;;;;;;;6294415;22;20004;-96
2023/04/15 09:40:54;;;;;;;0.10;0.10;;;;;;;;;;6297455;22;19988;-95
2023/04/15 09:43:21;;;;;;;0.10;0.10;;;;;;;;;;6294593;22;20004;-95
2023/04/15 09:45:51;;;;;;;0.10;0.10;;;8.10;99.90;;;;;;6296547;22;19991;-95
2023/04/15 09:48:27;;;;;;;0.10;0.10;;;8.10;99.90;;;;;;6297188;22;20008;-95
2023/04/15 09:50:57;;;;;;;0.10;0.10;;;7.90;99.90;;;;;;6296485;22;19988;-96
2023/04/15 09:53:24;;;;;;;0.10;0.10;;;7.90;99.90;;;;;;6296191;22;20097;-96
2023/04/15 09:55:51;;;;;;;0.10;0.10;;;7.70;99.90;;;;;;6297010;22;20000;-96
2023/04/15 09:58:22;;;;;;;0.10;0.10;;;8.20;99.90;;;;;;6296092;22;20011;-95
2023/04/15 10:00:49;;;;;;;0.10;0.10;;;8.40;99.90;;;;;;6297315;22;20023;-96
2023/04/15 10:03:22;;;;;;;0.10;0.10;;;8.30;99.90;;;;;;6298390;22;20021;-94
2023/04/15 10:05:50;;;;;;;0.10;0.10;;;8.40;99.90;;;;;;6293301;22;20080;-94
2023/04/15 10:08:18;;;;;;;0.10;0.10;;;8.40;99.90;;;;;;6295783;22;20038;-95
2023/04/15 10:10:45;;;;;;;0.10;0.10;;;8.50;99.90;;;;;;6294941;22;20051;-95
2023/04/15 10:13:13;;;;;;;0.10;0.10;;;8.50;99.90;;;;;;6297110;22;20004;-96
2023/04/15 10:15:49;;;;;;;0.10;0.10;;;8.50;99.90;;;;;;6298726;22;20000;-95
2023/04/15 10:18:18;;;;;;;0.10;0.10;;;8.50;99.90;;;;;;6296816;22;20070;-94
2023/04/15 10:20:44;;;;;;;0.10;0.10;;;;;;;;;;6297445;22;20009;-94
2023/04/15 10:23:11;;;;;;;0.10;0.10;;;;;;;;;;6296653;22;20004;-94
2023/04/15 10:25:37;;;;;;;0.10;0.10;;;;;;;;;;6296666;22;20004;-94
2023/04/15 10:28:03;;;;;;;0.10;0.10;;;;;;;;;;6296539;22;20011;-94
2023/04/15 10:30:30;;;;;;;0.10;0.10;;;;;;;;;;6296537;22;20004;-93
2023/04/15 10:32:56;;;;;;;0.10;0.10;;;;;;;;;;6296200;22;19999;-95
2023/04/15 10:35:22;;;;;;;0.10;0.10;;;;;;;;;;6297575;22;20014;-95
2023/04/15 10:37:48;;;;;;;0.10;0.10;;;;;;;;;;6296683;22;20063;-94
2023/04/15 10:40:30;;;;;;;0.10;0.10;;;8.70;99.90;;;;;;6296971;22;20010;-96
2023/04/15 10:43:01;;;;;;;0.10;0.10;;;8.80;99.90;;;;;;6296206;22;20030;-94
2023/04/15 10:45:38;;;;;;;0.10;0.10;;;8.70;99.90;;;;;;6297573;22;20010;-95
2023/04/15 10:48:07;;;;;;;0.10;0.10;;;8.60;99.90;;;;;;6296782;22;20019;-95
2023/04/15 10:50:33;;;;;;;0.10;0.10;;;;;;;;;;6298364;22;20015;-94
2023/04/15 10:53:03;;;;;;;0.10;0.10;;;8.60;99.90;;;;;;6297827;22;20412;-96
2023/04/15 10:55:33;;;;;;;0.10;0.10;;;8.60;99.90;;;;;;6297815;22;19984;-93
2023/04/15 10:58:00;;;;;;;0.10;0.10;;;8.60;99.90;;;;;;6298258;22;20004;-96
2023/04/15 12:17:57;;;;;;;0.00;0.00;;;9.10;99.90;;;;;;6320072;22;20015;-88
2023/04/15 12:20:25;;;;;;;0.10;0.10;;;9.00;99.90;;;;;;6343484;22;20006;-87
2023/04/15 12:22:51;;;;;;;0.10;0.10;;;9.00;99.90;;;;;;6343910;22;20054;-87
2023/04/15 12:25:16;;;;;;;0.10;0.10;;;9.20;99.90;;;;;;6347563;22;20002;-89
2023/04/15 12:27:50;;;;;;;0.10;0.10;;;9.10;99.90;;;;;;6346653;22;20425;-91
2023/04/15 12:30:17;;;;;;;0.10;0.10;;;;;;;;;;6344100;22;20012;-89
2023/04/15 12:32:44;;;;;;;0.00;0.00;;;9.10;99.90;;;;;;6345248;22;19995;-89
2023/04/15 12:35:10;;;;;;;0.10;0.10;;;9.10;99.90;;;;;;6344272;22;20005;-87
2023/04/15 12:37:36;;;;;;;0.10;0.10;;;;;;;;;;6344213;22;19999;-89
2023/04/15 12:40:02;;;;;;;0.10;0.10;;;;;;;;;;6343138;22;20003;-91
2023/04/15 12:42:27;;;;;;;0.10;0.10;;;9.00;99.90;;;;;;6344011;22;20007;-89
2023/04/15 12:44:53;;;;;;;0.10;0.10;;;;;;;;;;6343670;22;20003;-88
2023/04/15 12:47:19;;;;;;;0.05;0.05;;;9.10;99.90;;;;;;6343949;22;20009;-88
2023/04/15 12:49:45;;;;;;;0.10;0.10;;;;;;;;;;6345135;22;20345;-89
2023/04/15 12:52:12;;;;;;;0.08;0.08;;;;;;;;;;6344090;22;20047;-87
2023/04/15 12:54:39;;;;;;;0.10;0.10;;;9.30;99.90;;;;;;6346608;22;20097;-89
2023/04/15 12:57:04;;;;;;;0.10;0.10;;;9.30;99.90;;;;;;6345478;22;20306;-88
2023/04/15 12:59:30;;;;;;;0.10;0.10;;;9.30;99.90;;;;;;6345042;22;20006;-88
2023/04/15 13:01:56;;;;;;;0.10;0.10;;;;;;;;;;6345495;22;20002;-89
2023/04/15 13:04:22;;;;;;;0.10;0.10;;;9.20;99.90;;;;;;6344508;22;20003;-88
2023/04/15 13:06:48;;;;;;;0.10;0.10;;;9.20;99.90;;;;;;6345343;22;20033;-87
2023/04/15 13:09:14;;;;;;;0.10;0.10;;;;;;;;;;6345959;22;20034;-89
2023/04/15 13:11:40;;;;;;;0.10;0.10;;;;;;;;;;6347792;22;20059;-89
2023/04/15 13:14:07;;;;;;;0.10;0.10;;;9.30;99.90;;;;;;6344553;22;20005;-88
2023/04/15 13:16:33;;;;;;;0.10;0.10;;;10.10;99.90;;;;;;6345314;22;19998;-89
2023/04/15 13:19:00;;;;;;;0.10;0.10;;;9.70;99.90;;;;;;6346660;22;20013;-88
2023/04/15 13:21:26;;;;;;;0.10;0.10;;;10.30;99.90;;;;;;6345304;22;20545;-89
2023/04/15 13:23:52;;;;;;;0.10;0.10;;;;;;;;;;6372716;22;19998;-88
2023/04/15 13:26:18;;;;;;;0.00;0.00;;;;;;;;;;6344260;22;20135;-89
2023/04/15 13:28:44;;;;;;;0.10;0.10;;;;;;;;;;6345937;22;20006;-90
2023/04/15 13:31:10;;;;;;;0.00;0.00;;;9.30;99.90;;;;;;6343917;22;20013;-89
2023/04/15 13:33:35;;;;;;;0.10;0.10;;;9.40;99.90;;;;;;6344177;22;20029;-87
2023/04/15 13:36:01;;;;;;;0.10;0.10;;;9.30;99.90;;;;;;6343807;22;19998;-88
2023/04/15 13:38:27;;;;;;;0.00;0.00;;;9.50;99.90;;;;;;6344501;22;20006;-89
2023/04/15 13:40:52;;;;;;;0.10;0.10;;;9.50;99.90;;;;;;6343798;22;19998;-88
2023/04/15 13:43:18;;;;;;;0.00;0.00;;;9.40;99.90;;;;;;6344703;22;19994;-88
2023/04/15 13:45:46;;;;;;;0.08;0.08;;;9.50;99.90;;;;;;6344687;22;20341;-88
2023/04/15 13:48:11;;;;;;;0.10;0.10;;;9.50;99.90;;;;;;6344917;22;20003;-88
2023/04/15 13:50:38;;;;;;;0.10;0.10;;;;;;;;;;6344411;22;20024;-88
2023/04/15 13:53:04;;;;;;;0.00;0.00;;;;;;;;;;6345424;22;20397;-88
2023/04/15 13:55:30;;;;;;;0.10;0.10;;;;;;;;;;6344487;22;20077;-90
2023/04/15 13:57:56;;;;;;;0.00;0.00;;;;;;;;;;6344072;22;20077;-87
2023/04/15 14:00:25;;;;;;;0.10;0.10;;;9.50;99.90;;;;;;6343309;22;20388;-89
2023/04/15 14:02:50;;;;;;;0.10;0.10;;;9.50;99.90;;;;;;6345266;22;20002;-88
2023/04/15 14:05:16;;;;;;;0.05;0.05;;;9.60;99.90;;;;;;6343159;22;20403;-88
2023/04/15 14:07:41;;;;;;;0.10;0.10;;;9.70;99.90;;;;;;6343968;22;20034;-88
2023/04/15 14:10:07;;;;;;;0.10;0.10;;;11.00;99.90;;;;;;6343911;22;19998;-88
2023/04/15 14:12:33;;;;;;;0.10;0.10;;;9.50;99.90;;;;;;6343922;22;20051;-87
2023/04/15 14:14:58;;;;;;;0.10;0.10;;;9.50;99.90;;;;;;6346305;22;19999;-88
2023/04/15 14:17:24;;;;;;;0.10;0.10;;;9.60;99.90;;;;;;6345050;22;20098;-89
2023/04/15 14:19:49;;;;;;;0.10;0.10;;;9.50;99.90;;;;;;6343950;22;20040;-88
2023/04/15 14:22:17;;;;;;;0.10;0.10;;;9.60;99.90;;;;;;6346569;22;20002;-87
2023/04/15 14:24:42;;;;;;;0.10;0.10;;;9.60;99.90;;;;;;6343829;22;20463;-88
2023/04/15 14:27:10;;;;;;;0.10;0.10;;;10.80;99.90;;;;;;6343174;22;20002;-88
2023/04/15 14:29:35;;;;;;;0.00;0.00;;;9.60;99.90;;;;;;6343114;22;20030;-87
2023/04/15 14:32:01;;;;;;;0.10;0.10;;;;;;;;;;6343794;22;20025;-88
2023/04/15 14:34:26;;;;;;;0.10;0.10;;;9.60;99.90;;;;;;6345911;22;20007;-88
2023/04/15 14:36:52;;;;;;;0.10;0.10;;;9.70;99.90;;;;;;6345394;22;19999;-88
2023/04/15 14:39:18;;;;;;;0.10;0.10;;;9.60;99.90;;;;;;6343681;22;20009;-87
2023/04/15 14:41:44;;;;;;;0.00;0.00;;;9.70;99.90;;;;;;6343554;22;20009;-88
2023/04/15 14:44:10;;;;;;;0.10;0.10;;;9.70;99.90;;;;;;6343633;22;20006;-88
2023/04/15 14:46:36;;;;;;;0.10;0.10;;;9.70;99.90;;;;;;6343635;22;20010;-87
2023/04/15 14:49:02;;;;;;;0.10;0.10;;;9.70;99.90;;;;;;6344975;22;20006;-87
2023/04/15 14:51:28;;;;;;;0.10;0.10;;;;;;;;;;6344910;22;20077;-88
2023/04/15 14:53:54;;;;;;;0.00;0.00;;;;;;;;;;6342721;22;20010;-88
2023/04/15 14:56:20;;;;;;;0.10;0.10;;;9.60;99.90;;;;;;6343427;22;19995;-89
2023/04/15 14:58:46;;;;;;;0.10;0.10;;;;;;;;;;6343542;22;20033;-89
2023/04/15 15:01:12;;;;;;;0.10;0.10;;;;;;;;;;6344618;22;20321;-88
2023/04/15 15:03:38;;;;;;;0.10;0.10;;;9.60;99.90;;;;;;6345897;22;20007;-88
2023/04/15 15:06:04;;;;;;;0.10;0.10;;;;;;;;;;6344722;22;20028;-88
2023/04/15 15:08:29;;;;;;;0.10;0.10;;;9.80;99.90;;;;;;6346593;22;20002;-87
2023/04/15 15:10:55;;;;;;;0.10;0.10;;;9.70;99.90;;;;;;6346405;22;20017;-89
2023/04/15 15:13:20;;;;;;;0.00;0.00;;;9.70;99.90;;;;;;6345492;22;20006;-88
2023/04/15 15:15:48;;;;;;;0.10;0.10;;;;;;;;;;6344639;22;19999;-89
2023/04/15 15:18:15;;;;;;;0.00;0.00;;;9.60;99.90;;;;;;6344572;22;20002;-90
2023/04/15 15:20:41;;;;;;;0.10;0.10;;;;;;;;;;6344786;22;20003;-89
2023/04/15 15:23:07;;;;;;;0.10;0.10;;;;;;;;;;6344081;22;20013;-88